Bonita, California
Current Conditions -  °F | °C
As of 2:30 AM on Wednesday 22 Oct 2014 (Local Time) from KSDM Reporting Station
Haze Haze  
Wind Chill: 60°   Ceiling: Unl
Heat Index: 60°   Visibility: 6mi
Dew Point: 58°   Wind: 3mph
Humidity: 93%   Direction: NA
Pressure: 29.89"   Gusts: NA
Location:  32.67°N, 117.01°W
Report Text: KSDM 220930Z AUTO VRB03KT 6SM BR FEW006 16/14 A2989 RMK AO2 T01560144 TSNO $
Loading
Personal Weather Stations






























Interactive Weather Map
Tropical Storm Tracking
New forecast layout! Learn more

10-Day Weather Forecast

Advertisements
Track Severe Weather on mobile